Time;durP1;ratioP1;P1;durP2;ratioP2;P2;SDS_P1;SDS_P2;PMS_P1;PMS_P2;Temp;Humidity;BMP_temperature;BMP_pressure;BME280_temperature;BME280_humidity;BME280_pressure;Samples;Min_cycle;Max_cycle;Signal;HPM_P1;HPM_P2
2022/01/17 00:01:48;;;;;;;43.38;17.30;;;;;;;-2.73;79.19;99010.89;1707963;82;21728;-65
2022/01/17 00:04:15;;;;;;;40.23;17.25;;;;;;;-2.72;79.16;99008.47;1695250;82;21082;-66
2022/01/17 00:06:43;;;;;;;39.18;17.25;;;;;;;-2.72;79.12;99000.38;1700225;82;21151;-65
2022/01/17 00:09:12;;;;;;;42.70;17.17;;;;;;;-2.71;79.05;98992.04;1709904;81;21485;-66
2022/01/17 00:11:43;;;;;;;38.55;16.30;;;;;;;-2.67;78.96;98980.75;1731632;80;21102;-65
2022/01/17 00:14:14;;;;;;;34.70;15.83;;;;;;;-2.65;78.83;98978.63;1726672;81;21066;-66
2022/01/17 00:16:43;;;;;;;35.23;16.37;;;;;;;-2.66;78.80;98973.76;1732991;81;21483;-65
2022/01/17 00:21:51;;;;;;;40.45;15.45;;;;;;;-2.64;78.74;98968.94;1724995;81;21558;-64
2022/01/17 00:24:19;;;;;;;33.48;15.25;;;;;;;-2.62;78.60;98971.39;1723180;81;20979;-65
2022/01/17 00:26:52;;;;;;;45.03;17.42;;;;;;;-2.62;78.59;98967.34;1718938;81;21525;-65
2022/01/17 00:29:14;;;;;;;40.60;17.40;;;;;;;-2.58;78.43;98965.80;1732603;81;21498;-67
2022/01/17 00:31:40;;;;;;;46.25;18.73;;;;;;;-2.55;78.24;98965.30;1737538;80;21265;-66
2022/01/17 00:34:06;;;;;;;38.92;16.42;;;;;;;-2.52;78.04;98961.28;1710621;81;21489;-64
2022/01/17 00:36:32;;;;;;;37.67;17.00;;;;;;;-2.49;77.96;98955.41;1747064;80;21035;-65
2022/01/17 00:38:59;;;;;;;41.30;17.00;;;;;;;-2.46;77.70;98952.22;1743941;80;21027;-66
2022/01/17 00:41:26;;;;;;;36.35;15.15;;;;;;;-2.45;77.52;98950.62;1741410;79;21539;-66
2022/01/17 00:43:55;;;;;;;33.55;13.45;;;;;;;-2.42;77.22;98939.84;1735374;79;21162;-66
2022/01/17 00:46:22;;;;;;;34.35;16.02;;;;;;;-2.40;76.95;98932.85;1704550;82;21515;-66
2022/01/17 00:48:51;;;;;;;36.13;16.45;;;;;;;-2.38;76.75;98930.73;1726406;80;21068;-65
2022/01/17 00:51:18;;;;;;;33.08;15.18;;;;;;;-2.37;76.60;98916.98;1729030;81;21536;-64
2022/01/17 00:53:47;;;;;;;38.58;15.58;;;;;;;-2.35;76.58;98915.38;1737147;80;21034;-64
2022/01/17 00:56:16;;;;;;;34.60;15.55;;;;;;;-2.33;76.41;98909.20;1728255;81;21873;-63
2022/01/17 00:58:42;;;;;;;36.23;15.32;;;;;;;-2.30;76.19;98910.05;1695068;83;21647;-65
2022/01/17 01:01:09;;;;;;;33.42;15.30;;;;;;;-2.27;76.04;98902.00;1700225;82;21040;-65
2022/01/17 01:03:37;;;;;;;34.03;15.72;;;;;;;-2.24;75.93;98896.09;1719560;82;21656;-66
2022/01/17 01:06:03;;;;;;;36.93;17.15;;;;;;;-2.21;75.62;98905.87;1727497;81;21118;-64
2022/01/17 01:08:30;;;;;;;37.73;16.00;;;;;;;-2.17;75.58;98902.66;1743169;80;21487;-66
2022/01/17 01:10:57;;;;;;;38.48;16.82;;;;;;;-2.14;75.55;98896.75;1734461;81;21024;-67
2022/01/17 01:13:28;;;;;;;44.13;16.27;;;;;;;-2.11;75.47;98899.77;1676642;83;21061;-65
2022/01/17 01:21:44;;;;;;;40.80;17.50;;;;;;;-2.01;74.90;98891.50;1724554;79;21521;-65
2022/01/17 01:29:22;;;;;;;38.13;16.30;;;;;;;-1.91;74.02;98873.27;1716611;81;21066;-66
2022/01/17 01:31:57;;;;;;;43.75;15.70;;;;;;;-1.86;73.88;98865.23;1737722;81;21123;-66
2022/01/17 01:34:20;;;;;;;32.17;14.07;;;;;;;-1.83;73.69;98864.71;1744077;80;21152;-66
2022/01/17 01:36:48;;;;;;;33.23;14.43;;;;;;;-1.79;73.40;98863.67;1726972;80;21130;-65
2022/01/17 01:39:21;;;;;;;43.15;16.00;;;;;;;-1.77;73.33;98859.63;1741517;80;21051;-64
2022/01/17 01:41:43;;;;;;;39.60;15.48;;;;;;;-1.73;73.13;98854.55;1733112;80;21406;-66
2022/01/17 01:44:19;;;;;;;34.58;14.33;;;;;;;-1.68;72.96;98851.07;1747595;80;21059;-64
2022/01/17 01:46:48;;;;;;;35.43;15.05;;;;;;;-1.66;72.82;98852.98;1742286;79;21142;-64
2022/01/17 01:49:15;;;;;;;34.55;13.93;;;;;;;-1.63;72.66;98856.52;1727995;80;20993;-66
2022/01/17 01:51:42;;;;;;;39.18;14.58;;;;;;;-1.60;72.77;98843.32;1683112;83;21053;-63
2022/01/17 01:54:11;;;;;;;34.30;14.55;;;;;;;-1.57;73.07;98833.08;1701782;82;21147;-66
2022/01/17 01:56:48;;;;;;;33.80;14.43;;;;;;;-1.56;73.92;98844.98;1726805;80;21695;-63
2022/01/17 01:59:16;;;;;;;33.63;14.47;;;;;;;-1.55;74.92;98844.45;1682404;83;21213;-65
2022/01/17 02:01:43;;;;;;;31.80;14.87;;;;;;;-1.57;75.62;98836.61;1684044;83;21075;-66
2022/01/17 02:04:10;;;;;;;40.23;14.58;;;;;;;-1.60;76.31;98817.66;1690409;83;21099;-67
2022/01/17 02:06:37;;;;;;;39.73;15.30;;;;;;;-1.64;77.68;98808.41;1703761;82;21655;-66
2022/01/17 02:09:05;;;;;;;35.10;15.15;;;;;;;-1.66;78.54;98798.95;1712048;81;21103;-66
2022/01/17 02:11:32;;;;;;;36.42;15.70;;;;;;;-1.69;79.46;98780.55;1685191;83;21299;-68
2022/01/17 02:14:00;;;;;;;36.00;15.43;;;;;;;-1.72;80.08;98773.77;1728397;81;22035;-66
2022/01/17 02:16:32;;;;;;;37.13;16.07;;;;;;;-1.75;80.65;98754.02;1715572;81;21008;-66
2022/01/17 02:18:58;;;;;;;37.30;16.95;;;;;;;-1.77;81.04;98736.72;1725090;81;21092;-66
2022/01/17 02:24:18;;;;;;;39.38;15.93;;;;;;;-1.78;81.85;98717.54;1684335;81;21952;-66
2022/01/17 02:26:46;;;;;;;39.30;16.70;;;;;;;-1.75;82.24;98713.49;1732614;81;20988;-66
2022/01/17 02:29:14;;;;;;;39.50;17.30;;;;;;;-1.73;82.57;98720.81;1681071;82;21065;-63
2022/01/17 02:31:43;;;;;;;46.58;17.92;;;;;;;-1.72;82.90;98719.20;1729084;81;21021;-67
2022/01/17 02:34:10;;;;;;;44.65;16.57;;;;;;;-1.71;83.14;98667.34;1702785;82;21005;-66
2022/01/17 02:36:39;;;;;;;41.45;16.97;;;;;;;-1.70;83.35;98681.11;1719122;82;21140;-65
2022/01/17 02:39:07;;;;;;;39.03;16.10;;;;;;;-1.67;83.68;98718.98;1685016;82;21052;-67
2022/01/17 02:41:36;;;;;;;32.60;16.48;;;;;;;-1.66;83.91;98698.98;1714615;81;21049;-66
2022/01/17 02:44:03;;;;;;;43.33;16.00;;;;;;;-1.70;84.12;98698.67;1739814;80;21173;-66
2022/01/17 02:46:29;;;;;;;39.40;16.60;;;;;;;-1.72;84.34;98692.70;1728860;80;21030;-65
2022/01/17 02:48:57;;;;;;;38.10;15.38;;;;;;;-1.74;84.59;98690.27;1709550;81;21155;-64
2022/01/17 02:51:28;;;;;;;38.83;16.15;;;;;;;-1.76;84.81;98678.94;1698276;82;21524;-65
2022/01/17 02:53:54;;;;;;;44.98;16.87;;;;;;;-1.74;85.05;98681.38;1719776;80;21018;-64
2022/01/17 02:56:21;;;;;;;39.40;18.17;;;;;;;-1.74;85.17;98667.30;1726136;81;20993;-64
2022/01/17 02:58:48;;;;;;;41.45;17.87;;;;;;;-1.74;85.16;98660.55;1684455;82;21009;-65
2022/01/17 03:01:19;;;;;;;42.03;19.92;;;;;;;-1.72;85.30;98651.66;1714933;81;21150;-66
2022/01/17 03:03:46;;;;;;;41.88;16.82;;;;;;;-1.71;85.31;98638.41;1722024;81;21077;-66
2022/01/17 03:06:12;;;;;;;49.27;19.30;;;;;;;-1.68;85.35;98624.94;1723542;80;21013;-64
2022/01/17 03:08:40;;;;;;;49.70;18.80;;;;;;;-1.64;85.33;98621.18;1717884;81;22218;-67
2022/01/17 03:11:12;;;;;;;43.08;17.92;;;;;;;-1.63;85.19;98624.97;1736243;81;21046;-65
2022/01/17 03:13:39;;;;;;;42.53;18.35;;;;;;;-1.61;85.06;98617.95;1738640;80;21116;-65
2022/01/17 03:16:14;;;;;;;45.60;17.87;;;;;;;-1.60;84.94;98616.34;1726602;80;21555;-65
2022/01/17 03:18:43;;;;;;;38.00;18.55;;;;;;;-1.58;84.83;98610.67;1739013;80;21534;-65
2022/01/17 03:21:14;;;;;;;36.38;17.35;;;;;;;-1.55;84.67;98612.05;1733317;80;21677;-66
2022/01/17 03:23:41;;;;;;;40.67;18.15;;;;;;;-1.51;84.44;98604.50;1738212;80;21054;-66
2022/01/17 03:26:08;;;;;;;35.52;15.98;;;;;;;-1.49;84.22;98600.19;1716502;80;21081;-65
2022/01/17 03:28:34;;;;;;;41.55;17.10;;;;;;;-1.47;83.97;98582.61;1740555;80;21037;-65
2022/01/17 03:31:01;;;;;;;44.63;18.10;;;;;;;-1.44;83.65;98588.05;1708739;81;21032;-65
2022/01/17 03:33:27;;;;;;;49.67;17.62;;;;;;;-1.43;83.47;98590.22;1703763;82;21032;-64
2022/01/17 03:35:53;;;;;;;41.45;17.37;;;;;;;-1.40;83.14;98587.78;1701617;82;21159;-65
2022/01/17 03:38:22;;;;;;;40.92;17.17;;;;;;;-1.37;82.99;98581.05;1716469;81;21133;-65
2022/01/17 03:40:52;;;;;;;40.08;17.40;;;;;;;-1.36;82.61;98569.97;1713443;81;21000;-64
2022/01/17 03:43:20;;;;;;;45.92;19.62;;;;;;;-1.31;82.32;98558.92;1726451;81;21020;-67
2022/01/17 03:45:46;;;;;;;42.48;16.97;;;;;;;-1.29;82.00;98545.92;1713469;81;21623;-66
2022/01/17 03:48:13;;;;;;;41.98;17.73;;;;;;;-1.28;81.77;98538.89;1734600;80;21071;-66
2022/01/17 03:50:42;;;;;;;34.30;16.62;;;;;;;-1.25;81.46;98540.27;1726627;80;21144;-66
2022/01/17 03:53:09;;;;;;;34.78;15.95;;;;;;;-1.23;81.11;98535.42;1708874;81;21548;-65
2022/01/17 03:55:35;;;;;;;34.88;16.55;;;;;;;-1.20;80.69;98528.66;1689542;82;21052;-66
2022/01/17 03:58:04;;;;;;;38.25;15.58;;;;;;;-1.17;80.30;98522.17;1708832;82;21000;-66
2022/01/17 04:00:35;;;;;;;41.18;16.17;;;;;;;-1.14;80.11;98520.81;1677707;83;21685;-65
2022/01/17 04:03:02;;;;;;;31.45;15.90;;;;;;;-1.13;79.70;98517.88;1706751;80;21120;-66
2022/01/17 04:05:29;;;;;;;37.90;14.73;;;;;;;-1.09;79.50;98520.83;1726923;81;21204;-66
2022/01/17 04:07:55;;;;;;;35.70;16.48;;;;;;;-1.07;79.19;98518.67;1719646;81;21055;-65
2022/01/17 04:10:22;;;;;;;42.10;15.32;;;;;;;-1.04;78.95;98514.64;1703891;81;21103;-65
2022/01/17 04:12:48;;;;;;;34.73;15.32;;;;;;;-1.03;78.66;98512.20;1711799;81;21078;-65
2022/01/17 04:15:16;;;;;;;43.33;15.28;;;;;;;-1.00;78.30;98513.83;1736181;80;21053;-66
2022/01/17 04:17:43;;;;;;;36.58;15.88;;;;;;;-0.97;77.93;98507.06;1701029;82;21635;-65
2022/01/17 04:20:15;;;;;;;31.55;13.85;;;;;;;-0.95;77.46;98508.14;1697126;81;21123;-64
2022/01/17 04:22:50;;;;;;;38.98;14.55;;;;;;;-0.92;77.13;98496.81;1714585;81;21642;-66
2022/01/17 04:25:13;;;;;;;33.53;15.05;;;;;;;-0.91;76.62;98495.72;1739370;81;21439;-66
2022/01/17 04:27:41;;;;;;;35.48;14.30;;;;;;;-0.89;76.33;98486.23;1742435;80;21809;-65
2022/01/17 04:30:08;;;;;;;35.45;15.15;;;;;;;-0.86;75.97;98482.20;1746975;81;21044;-63
2022/01/17 04:32:36;;;;;;;38.80;14.50;;;;;;;-0.82;75.30;98488.68;1701172;82;21520;-65
2022/01/17 04:35:02;;;;;;;45.88;14.58;;;;;;;-0.79;75.02;98480.05;1753219;81;21000;-69
2022/01/17 04:37:31;;;;;;;35.03;14.33;;;;;;;-0.76;74.87;98482.20;1746810;80;21063;-64
2022/01/17 04:39:59;;;;;;;31.30;13.13;;;;;;;-0.74;74.76;98492.23;1741455;79;21978;-64
2022/01/17 04:42:28;;;;;;;29.37;13.58;;;;;;;-0.70;75.36;98503.86;1731135;81;21375;-66
2022/01/17 04:45:11;;;;;;;29.30;12.95;;;;;;;-0.72;76.46;98496.02;1710961;81;21059;-67
2022/01/17 04:47:41;;;;;;;30.02;12.88;;;;;;;-0.77;77.43;98492.73;1711316;82;21077;-66
2022/01/17 04:50:11;;;;;;;34.63;13.83;;;;;;;-0.81;78.57;98490.32;1729438;80;21031;-67
2022/01/17 04:52:38;;;;;;;33.65;13.40;;;;;;;-0.85;79.43;98482.45;1689380;81;21135;-66
2022/01/17 04:55:06;;;;;;;34.73;13.78;;;;;;;-0.90;80.12;98477.86;1717561;81;21170;-66
2022/01/17 04:57:33;;;;;;;32.25;14.23;;;;;;;-0.94;80.68;98464.62;1709662;81;21056;-64
2022/01/17 05:00:00;;;;;;;33.42;13.85;;;;;;;-0.95;81.60;98451.34;1702205;82;21037;-66
2022/01/17 05:02:27;;;;;;;30.52;13.43;;;;;;;-0.99;81.90;98443.77;1725075;82;21047;-64
2022/01/17 05:04:54;;;;;;;27.27;13.85;;;;;;;-1.02;82.47;98430.80;1707245;82;21523;-66
2022/01/17 05:07:20;;;;;;;27.98;13.60;;;;;;;-1.03;83.14;98433.23;1717906;81;21035;-66
2022/01/17 05:09:47;;;;;;;29.87;13.58;;;;;;;-1.04;83.81;98418.08;1713800;82;21535;-65
2022/01/17 05:12:16;;;;;;;34.13;15.10;;;;;;;-1.06;84.44;98404.03;1732513;81;21170;-67
2022/01/17 05:14:48;;;;;;;28.57;13.83;;;;;;;-1.07;84.97;98406.45;1715490;82;21064;-67
2022/01/17 05:19:55;;;;;;;29.90;14.50;;;;;;;-1.12;85.91;98387.52;1717149;82;21556;-65
2022/01/17 05:22:19;;;;;;;24.82;12.80;;;;;;;-1.12;86.31;98388.88;1707982;82;21070;-64
2022/01/17 05:24:46;;;;;;;33.28;14.18;;;;;;;-1.11;86.68;98382.41;1738675;79;21059;-65
2022/01/17 05:27:14;;;;;;;26.68;14.13;;;;;;;-1.08;86.99;98380.50;1746790;81;20995;-66
2022/01/17 05:29:41;;;;;;;37.25;14.33;;;;;;;-1.07;87.21;98376.70;1713087;80;21964;-64
2022/01/17 05:32:08;;;;;;;30.40;14.78;;;;;;;-1.06;87.48;98381.05;1732484;81;21027;-67
2022/01/17 05:34:40;;;;;;;26.93;14.68;;;;;;;-1.04;87.66;98380.22;1690291;83;21580;-65
2022/01/17 05:37:06;;;;;;;31.37;14.15;;;;;;;-1.01;87.80;98392.40;1717440;81;21444;-66
2022/01/17 05:39:34;;;;;;;32.78;15.35;;;;;;;-0.98;87.93;98383.73;1751197;80;21055;-67
2022/01/17 05:42:02;;;;;;;32.17;14.83;;;;;;;-0.96;88.07;98379.41;1749474;81;21199;-65
2022/01/17 05:44:29;;;;;;;31.85;15.72;;;;;;;-0.93;88.10;98376.16;1728416;80;21067;-66
2022/01/17 05:46:57;;;;;;;32.70;16.00;;;;;;;-0.91;88.18;98372.11;1724792;81;21702;-67
2022/01/17 05:49:24;;;;;;;30.05;14.55;;;;;;;-0.88;88.19;98368.03;1731916;80;21094;-68
2022/01/17 05:51:51;;;;;;;27.62;14.18;;;;;;;-0.88;88.33;98370.21;1726258;81;21046;-66
2022/01/17 05:54:19;;;;;;;31.73;15.32;;;;;;;-0.87;88.42;98357.50;1726181;81;21036;-66
2022/01/17 05:56:48;;;;;;;31.90;14.30;;;;;;;-0.87;88.49;98354.23;1729958;81;21132;-68
2022/01/17 05:59:14;;;;;;;28.87;15.40;;;;;;;-0.85;88.58;98352.61;1713292;82;21882;-67
2022/01/17 06:01:42;;;;;;;35.58;14.95;;;;;;;-0.82;88.56;98356.11;1708723;81;21096;-66
2022/01/17 06:04:11;;;;;;;34.48;14.90;;;;;;;-0.79;88.54;98349.37;1732560;81;21446;-68
2022/01/17 06:06:38;;;;;;;31.60;15.48;;;;;;;-0.80;88.58;98337.72;1732926;80;21134;-66
2022/01/17 06:09:05;;;;;;;32.83;14.05;;;;;;;-0.80;88.68;98338.28;1743781;80;21671;-66
2022/01/17 06:11:35;;;;;;;28.95;14.60;;;;;;;-0.79;88.74;98332.59;1739524;80;21099;-67
2022/01/17 06:14:02;;;;;;;36.83;15.80;;;;;;;-0.77;88.74;98330.41;1736938;80;21051;-65
2022/01/17 06:16:31;;;;;;;33.33;14.90;;;;;;;-0.75;88.66;98332.30;1753309;79;20991;-67
2022/01/17 06:18:59;;;;;;;32.08;16.07;;;;;;;-0.72;88.60;98322.84;1748479;81;21068;-67
2022/01/17 06:21:26;;;;;;;40.58;15.88;;;;;;;-0.71;88.58;98328.52;1756608;79;21066;-65
2022/01/17 06:23:54;;;;;;;32.10;15.78;;;;;;;-0.68;88.45;98319.84;1723819;81;21013;-67
2022/01/17 06:26:20;;;;;;;34.70;15.40;;;;;;;-0.66;88.32;98320.38;1708736;82;21024;-68
2022/01/17 06:28:48;;;;;;;35.00;16.82;;;;;;;-0.65;88.25;98311.17;1709168;81;21096;-66
2022/01/17 06:31:14;;;;;;;31.87;14.43;;;;;;;-0.63;88.13;98305.48;1728172;80;21322;-66
2022/01/17 06:33:42;;;;;;;31.30;14.75;;;;;;;-0.61;88.05;98307.38;1672203;84;21059;-67
2022/01/17 06:36:09;;;;;;;32.58;16.23;;;;;;;-0.59;87.99;98303.03;1722278;80;22220;-66
2022/01/17 06:38:36;;;;;;;32.63;15.55;;;;;;;-0.58;87.90;98289.23;1735423;80;21055;-66
2022/01/17 06:41:04;;;;;;;36.13;14.58;;;;;;;-0.56;87.84;98284.35;1734571;80;21091;-66
2022/01/17 06:43:30;;;;;;;38.20;15.93;;;;;;;-0.53;87.71;98269.47;1754485;79;21166;-68
2022/01/17 06:45:58;;;;;;;34.20;16.77;;;;;;;-0.53;87.68;98251.31;1720448;81;21035;-67
2022/01/17 06:48:26;;;;;;;30.20;15.50;;;;;;;-0.52;87.43;98246.19;1728795;81;22275;-67
2022/01/17 06:50:53;;;;;;;50.90;19.23;;;;;;;-0.48;87.24;98241.03;1736883;81;21470;-67
2022/01/17 06:53:26;;;;;;;38.48;17.60;;;;;;;-0.46;87.19;98227.22;1735872;81;21496;-69
2022/01/17 06:55:53;;;;;;;37.13;17.05;;;;;;;-0.45;87.18;98211.23;1749775;81;22168;-67
2022/01/17 06:58:20;;;;;;;41.00;20.00;;;;;;;-0.43;87.08;98196.34;1739003;80;21488;-66
2022/01/17 07:00:47;;;;;;;38.75;17.23;;;;;;;-0.41;86.98;98176.55;1746509;80;21074;-66
2022/01/17 07:03:14;;;;;;;35.92;18.07;;;;;;;-0.37;86.91;98199.81;1751451;80;21152;-66
2022/01/17 07:05:41;;;;;;;35.05;18.55;;;;;;;-0.35;86.79;98232.84;1756119;80;21059;-68
2022/01/17 07:08:07;;;;;;;39.58;18.40;;;;;;;-0.34;86.68;98279.11;1743568;80;21865;-68
2022/01/17 07:10:34;;;;;;;41.25;17.37;;;;;;;-0.30;86.64;98289.66;1754015;80;21499;-69
2022/01/17 07:13:00;;;;;;;37.13;17.27;;;;;;;-0.26;86.35;98282.59;1755123;79;21042;-69
2022/01/17 07:15:28;;;;;;;33.25;16.25;;;;;;;-0.23;86.27;98298.02;1697733;82;21213;-67
2022/01/17 07:17:55;;;;;;;37.90;19.57;;;;;;;-0.20;86.12;98289.34;1694340;83;21142;-64
2022/01/17 07:20:21;;;;;;;33.48;18.25;;;;;;;-0.15;85.93;98277.13;1683493;81;21267;-67
2022/01/17 07:22:47;;;;;;;38.70;18.15;;;;;;;-0.12;85.70;98250.86;1734710;81;21035;-66
2022/01/17 07:25:17;;;;;;;41.58;18.67;;;;;;;-0.09;85.57;98229.17;1726494;81;21015;-68
2022/01/17 07:27:46;;;;;;;38.60;17.12;;;;;;;-0.07;85.55;98190.43;1733926;80;21045;-68
2022/01/17 07:30:12;;;;;;;37.35;16.37;;;;;;;-0.04;85.38;98162.77;1742305;81;21046;-68
2022/01/17 07:32:39;;;;;;;37.60;18.70;;;;;;;-0.02;85.22;98141.64;1733910;81;21411;-66
2022/01/17 07:35:07;;;;;;;37.45;19.50;;;;;;;-0.02;85.17;98130.23;1742524;81;21042;-65
2022/01/17 07:37:34;;;;;;;42.53;20.55;;;;;;;0.01;85.07;98142.42;1733087;81;21064;-68
2022/01/17 07:40:00;;;;;;;38.63;19.57;;;;;;;0.02;85.16;98148.66;1736815;80;21036;-65
2022/01/17 07:42:28;;;;;;;42.78;20.48;;;;;;;0.04;85.20;98143.20;1720944;81;21080;-67
2022/01/17 07:44:58;;;;;;;35.68;20.23;;;;;;;0.08;85.19;98140.73;1719381;81;21327;-67
2022/01/17 07:47:39;;;;;;;38.05;19.52;;;;;;;0.11;85.22;98157.78;1695359;83;21099;-66
2022/01/17 07:49:53;;;;;;;39.48;21.12;;;;;;;0.14;85.08;98152.35;1731378;81;21023;-66
2022/01/17 07:52:23;;;;;;;40.70;20.08;;;;;;;0.18;85.12;98177.77;1726179;81;21051;-65
2022/01/17 07:54:49;;;;;;;38.80;19.32;;;;;;;0.20;85.18;98205.39;1746853;80;21538;-66
2022/01/17 07:57:18;;;;;;;38.92;19.87;;;;;;;0.22;85.25;98194.52;1746127;81;21148;-66
2022/01/17 07:59:45;;;;;;;39.63;19.92;;;;;;;0.27;85.33;98182.85;1716292;81;21051;-66
2022/01/17 08:02:13;;;;;;;38.75;19.62;;;;;;;0.33;85.17;98171.41;1700801;82;21048;-67
2022/01/17 08:04:39;;;;;;;44.15;20.88;;;;;;;0.34;85.08;98142.66;1706004;81;21072;-65
2022/01/17 08:07:07;;;;;;;37.40;19.55;;;;;;;0.36;85.06;98125.57;1706323;81;21093;-67
2022/01/17 08:09:35;;;;;;;40.88;21.07;;;;;;;0.38;85.21;98137.48;1687279;83;21341;-67
2022/01/17 08:12:04;;;;;;;43.85;22.05;;;;;;;0.40;85.28;98110.09;1694328;82;21540;-66
2022/01/17 08:14:33;;;;;;;42.08;20.92;;;;;;;0.44;85.15;98092.16;1690754;82;21049;-68
2022/01/17 08:17:01;;;;;;;46.60;22.58;;;;;;;0.46;85.17;98117.87;1701462;82;21045;-66
2022/01/17 08:19:28;;;;;;;45.55;22.93;;;;;;;0.45;85.23;98109.49;1728346;80;21662;-66
2022/01/17 08:21:56;;;;;;;37.83;19.45;;;;;;;0.47;85.31;98087.52;1719969;81;21129;-67
2022/01/17 08:24:24;;;;;;;40.67;21.48;;;;;;;0.48;85.29;98066.08;1726721;81;21144;-66
2022/01/17 08:26:50;;;;;;;39.90;21.60;;;;;;;0.48;85.42;98079.09;1707477;82;21081;-67
2022/01/17 08:29:17;;;;;;;43.78;23.45;;;;;;;0.52;85.42;98065.78;1689424;82;21060;-66
2022/01/17 08:31:46;;;;;;;40.35;22.02;;;;;;;0.54;85.36;98048.68;1693525;82;21680;-65
2022/01/17 08:34:15;;;;;;;39.85;21.62;;;;;;;0.56;85.40;98058.66;1727790;81;21190;-65
2022/01/17 08:36:41;;;;;;;44.77;22.70;;;;;;;0.56;85.38;98053.81;1729648;81;21052;-67
2022/01/17 08:39:09;;;;;;;44.67;22.00;;;;;;;0.57;85.47;98045.39;1734862;81;21543;-66
2022/01/17 08:41:37;;;;;;;44.13;23.80;;;;;;;0.60;85.39;98033.14;1722327;82;21063;-65
2022/01/17 08:44:04;;;;;;;46.35;23.27;;;;;;;0.61;85.42;98038.84;1700396;82;21071;-65
2022/01/17 08:46:31;;;;;;;40.33;21.97;;;;;;;0.61;85.44;98034.77;1734035;80;21182;-66
2022/01/17 08:48:58;;;;;;;38.55;21.80;;;;;;;0.61;85.43;98044.27;1701922;83;21127;-65
2022/01/17 08:51:26;;;;;;;41.58;20.52;;;;;;;0.60;85.46;98042.09;1712329;82;21162;-66
2022/01/17 08:53:52;;;;;;;42.20;22.90;;;;;;;0.62;85.51;98035.56;1734492;81;21459;-65
2022/01/17 08:56:21;;;;;;;39.88;20.35;;;;;;;0.63;85.58;98045.33;1721138;81;20983;-67
2022/01/17 08:58:48;;;;;;;41.48;21.00;;;;;;;0.64;85.49;98032.83;1726627;80;21665;-67
2022/01/17 09:01:14;;;;;;;36.50;21.27;;;;;;;0.67;85.24;98039.56;1735898;80;21465;-67
2022/01/17 09:03:41;;;;;;;43.85;22.93;;;;;;;0.72;84.97;98015.09;1743314;81;21042;-68
2022/01/17 09:06:07;;;;;;;37.42;20.40;;;;;;;0.73;84.75;98050.05;1715052;81;22238;-67
2022/01/17 09:08:34;;;;;;;36.85;21.50;;;;;;;0.75;84.62;98040.84;1719126;81;21105;-66
2022/01/17 09:11:02;;;;;;;37.33;21.45;;;;;;;0.72;84.67;98033.54;1694278;82;21145;-66
2022/01/17 09:13:30;;;;;;;41.15;20.15;;;;;;;0.74;84.51;98025.11;1691767;82;21115;-66
2022/01/17 09:15:56;;;;;;;41.80;22.73;;;;;;;0.77;84.36;97993.91;1686237;82;21173;-65
2022/01/17 09:18:24;;;;;;;34.45;20.37;;;;;;;0.78;84.35;97999.58;1694373;82;21051;-64
2022/01/17 09:20:52;;;;;;;40.78;20.97;;;;;;;0.78;84.15;98000.39;1704610;82;21003;-65
2022/01/17 09:23:20;;;;;;;36.10;20.17;;;;;;;0.81;84.17;97978.64;1738555;81;21833;-65
2022/01/17 09:25:46;;;;;;;38.92;19.85;;;;;;;0.81;83.97;97976.75;1732608;80;21111;-65
2022/01/17 09:28:13;;;;;;;33.10;18.87;;;;;;;0.87;83.84;97972.61;1719071;81;21020;-64
2022/01/17 09:30:39;;;;;;;35.17;19.52;;;;;;;0.85;83.88;97966.13;1739831;81;21013;-65
2022/01/17 09:33:06;;;;;;;30.75;17.80;;;;;;;0.85;83.62;97958.77;1748584;79;20991;-65
2022/01/17 09:35:33;;;;;;;35.40;18.85;;;;;;;0.87;83.45;97944.91;1705388;82;21567;-65
2022/01/17 09:37:59;;;;;;;36.25;19.37;;;;;;;0.86;83.47;97944.67;1660603;82;21050;-64
2022/01/17 09:40:26;;;;;;;34.33;18.07;;;;;;;0.87;83.41;97940.84;1704882;82;21029;-66
2022/01/17 09:42:58;;;;;;;34.95;19.55;;;;;;;0.89;83.44;97931.09;1696313;82;21148;-65
2022/01/17 09:45:24;;;;;;;36.17;19.20;;;;;;;0.89;83.41;97917.52;1696193;82;21655;-65
2022/01/17 09:47:52;;;;;;;33.25;19.85;;;;;;;0.87;83.51;97924.57;1714683;81;21144;-67
2022/01/17 09:50:22;;;;;;;32.83;18.85;;;;;;;0.88;83.34;97913.18;1708911;82;21516;-67
2022/01/17 09:52:51;;;;;;;35.17;19.62;;;;;;;0.92;83.36;97896.59;1710113;82;21127;-66
2022/01/17 09:55:22;;;;;;;32.03;18.10;;;;;;;0.89;83.32;97900.68;1741251;80;21039;-67
2022/01/17 09:58:05;;;;;;;32.03;18.27;;;;;;;0.89;83.39;97902.03;1711920;81;21229;-65
2022/01/17 10:00:35;;;;;;;31.97;18.27;;;;;;;0.88;83.43;97899.08;1728891;81;21200;-66
2022/01/17 10:03:10;;;;;;;38.83;20.30;;;;;;;0.89;83.42;97891.19;1736261;81;21264;-64
2022/01/17 10:05:38;;;;;;;38.48;21.00;;;;;;;0.89;83.33;97880.34;1689604;82;21102;-66
2022/01/17 10:08:08;;;;;;;33.83;18.67;;;;;;;0.91;83.45;97884.11;1706276;82;21100;-67
2022/01/17 10:10:57;;;;;;;35.85;19.55;;;;;;;0.91;83.39;97886.28;1710382;82;21064;-68
2022/01/17 10:13:33;;;;;;;37.13;19.73;;;;;;;0.94;83.24;97878.09;1724465;81;21798;-68
2022/01/17 10:16:13;;;;;;;29.77;17.52;;;;;;;0.95;83.26;97876.46;1690653;81;21077;-65
2022/01/17 10:18:55;;;;;;;30.85;17.50;;;;;;;0.95;83.42;97871.58;1688643;82;21098;-63
2022/01/17 10:21:49;;;;;;;33.08;16.93;;;;;;;0.97;83.41;97868.81;1672164;83;21107;-64
2022/01/17 10:34:57;;;;;;;30.88;17.37;;;;;;;1.11;83.16;97829.27;1751123;80;21042;-64
2022/01/17 10:37:27;;;;;;;34.08;18.60;;;;;;;1.13;83.05;97829.75;1744340;81;21462;-65
2022/01/17 10:40:02;;;;;;;32.40;18.77;;;;;;;1.15;82.92;97818.88;1736251;81;21264;-63
2022/01/17 10:42:46;;;;;;;35.48;19.15;;;;;;;1.17;82.76;97803.10;1725906;81;21119;-68
2022/01/17 10:45:15;;;;;;;30.15;18.80;;;;;;;1.17;82.58;97788.17;1731060;80;21080;-65
2022/01/17 10:47:44;;;;;;;31.55;18.55;;;;;;;1.18;82.31;97768.06;1741887;80;21155;-63
2022/01/17 10:50:27;;;;;;;35.68;18.05;;;;;;;1.18;82.20;97767.25;1744483;81;21103;-66
2022/01/17 10:52:56;;;;;;;33.65;19.98;;;;;;;1.17;82.30;97761.05;1736115;80;21228;-65
2022/01/17 10:55:32;;;;;;;32.30;19.27;;;;;;;1.16;82.40;97755.34;1741728;80;21055;-66
2022/01/17 10:58:09;;;;;;;36.40;18.25;;;;;;;1.18;82.30;97762.64;1737977;81;20964;-66
2022/01/17 11:00:43;;;;;;;28.95;16.67;;;;;;;1.21;82.06;97740.90;1718050;81;21522;-69
2022/01/17 11:03:14;;;;;;;26.85;15.03;;;;;;;1.21;81.80;97727.33;1738579;80;21080;-68
2022/01/17 11:05:46;;;;;;;26.80;15.25;;;;;;;1.21;81.68;97726.75;1734386;81;21123;-67
2022/01/17 11:08:15;;;;;;;29.30;16.65;;;;;;;1.23;81.55;97717.53;1733402;81;21034;-65
2022/01/17 11:10:44;;;;;;;27.42;15.18;;;;;;;1.23;81.53;97716.95;1720326;81;21046;-63
2022/01/17 11:13:14;;;;;;;29.18;16.75;;;;;;;1.23;81.37;97714.24;1748322;81;21075;-67
2022/01/17 11:15:43;;;;;;;33.70;16.85;;;;;;;1.22;81.38;97705.86;1728518;81;21113;-68
2022/01/17 11:18:18;;;;;;;27.73;16.32;;;;;;;1.25;81.18;97709.87;1723124;81;21192;-65
2022/01/17 11:20:47;;;;;;;26.80;15.60;;;;;;;1.26;81.14;97703.35;1728027;81;21579;-65
2022/01/17 11:23:14;;;;;;;26.50;15.88;;;;;;;1.26;81.12;97689.78;1747844;80;20984;-68
2022/01/17 11:25:43;;;;;;;26.25;16.02;;;;;;;1.25;81.15;97694.40;1733165;80;21804;-66
2022/01/17 11:28:10;;;;;;;28.05;15.98;;;;;;;1.26;80.98;97696.02;1751407;80;21510;-65
2022/01/17 11:30:38;;;;;;;27.87;16.23;;;;;;;1.28;80.92;97688.93;1738797;80;21076;-64
2022/01/17 11:33:09;;;;;;;32.25;14.85;;;;;;;1.27;80.96;97672.38;1748811;79;21031;-66
2022/01/17 11:35:41;;;;;;;22.32;14.40;;;;;;;1.27;80.91;97676.45;1744911;81;21119;-65
2022/01/17 11:38:14;;;;;;;25.45;14.98;;;;;;;1.29;80.78;97670.98;1737882;79;21056;-66
2022/01/17 11:40:42;;;;;;;24.05;14.47;;;;;;;1.30;80.67;97660.91;1712588;80;21027;-67
2022/01/17 11:43:33;;;;;;;23.02;14.18;;;;;;;1.32;80.46;97657.34;1748325;81;21149;-65
2022/01/17 11:45:56;;;;;;;25.35;13.72;;;;;;;1.35;80.29;97654.02;1739643;80;21060;-65
2022/01/17 11:48:30;;;;;;;23.25;14.58;;;;;;;1.37;80.30;97632.00;1713953;80;21560;-66
2022/01/17 11:51:13;;;;;;;26.12;14.68;;;;;;;1.39;80.06;97630.60;1749402;80;21040;-64
2022/01/17 11:53:44;;;;;;;21.82;13.05;;;;;;;1.41;80.07;97636.53;1743708;79;21142;-65
2022/01/17 11:56:10;;;;;;;24.77;13.70;;;;;;;1.43;80.00;97626.15;1743881;80;21270;-64